Time;durP1;ratioP1;P1;durP2;ratioP2;P2;SDS_P1;SDS_P2;PMS_P1;PMS_P2;Temp;Humidity;BMP_temperature;BMP_pressure;BME280_temperature;BME280_humidity;BME280_pressure;Samples;Min_cycle;Max_cycle;Signal;HPM_P1;HPM_P2
2023/05/24 00:02:15;;;;;;;7.75;1.73;;;;;;;9.55;95.68;101236.38;5161718;28;20511;-71
2023/05/24 00:04:48;;;;;;;12.93;1.77;;;;;;;9.58;94.64;101233.69;5157256;28;20049;-70
2023/05/24 00:07:18;;;;;;;17.88;1.83;;;;;;;9.47;96.43;101235.69;5163723;28;20021;-70
2023/05/24 00:09:49;;;;;;;24.35;2.20;;;;;;;9.45;96.09;101234.84;5160363;28;20037;-70
2023/05/24 00:12:19;;;;;;;10.75;1.60;;;;;;;9.42;95.50;101232.28;5161087;28;20387;-70
2023/05/24 00:14:50;;;;;;;16.00;2.22;;;;;;;9.41;95.98;101230.56;5167164;28;20030;-70
2023/05/24 00:17:20;;;;;;;8.48;1.90;;;;;;;9.47;96.23;101236.53;5164087;28;20036;-70
2023/05/24 00:19:51;;;;;;;12.43;1.92;;;;;;;9.35;95.83;101233.31;5160235;28;20374;-70
2023/05/24 00:22:21;;;;;;;15.30;2.35;;;;;;;9.42;96.43;101232.28;5160263;28;20029;-70
2023/05/24 00:24:51;;;;;;;11.68;2.28;;;;;;;9.30;98.39;101229.94;5162223;28;20037;-71
2023/05/24 00:27:22;;;;;;;9.45;1.58;;;;;;;9.48;96.93;101226.97;5160280;28;20034;-70
2023/05/24 00:29:52;;;;;;;16.08;2.67;;;;;;;9.38;96.35;101225.41;5163751;28;20047;-70
2023/05/24 00:32:22;;;;;;;10.77;2.00;;;;;;;9.12;98.92;101225.09;5163583;28;20036;-70
2023/05/24 00:34:53;;;;;;;13.18;2.13;;;;;;;9.21;97.65;101224.91;5162270;28;20109;-70
2023/05/24 00:37:23;;;;;;;9.38;1.85;;;;;;;9.28;97.31;101226.50;5158825;28;20479;-69
2023/05/24 00:39:53;;;;;;;14.48;1.98;;;;;;;9.09;99.12;101217.31;5164049;28;20030;-70
2023/05/24 00:42:24;;;;;;;12.77;2.25;;;;;;;9.18;98.54;101225.81;5158599;28;20399;-70
2023/05/24 00:44:54;;;;;;;18.98;2.78;;;;;;;9.01;98.57;101216.59;5162480;28;20037;-71
2023/05/24 00:47:24;;;;;;;11.48;2.22;;;;;;;8.83;100.00;101223.88;5161335;28;20034;-70
2023/05/24 00:49:55;;;;;;;12.57;2.72;;;;;;;8.95;100.00;101221.94;5151732;28;20080;-70
2023/05/24 00:52:26;;;;;;;13.38;2.10;;;;;;;8.87;100.00;101215.16;5166205;28;20068;-69
2023/05/24 00:54:56;;;;;;;15.10;2.13;;;;;;;8.96;99.92;101215.84;5170110;28;20033;-69
2023/05/24 00:57:27;;;;;;;13.38;2.30;;;;;;;8.91;100.00;101219.41;5162420;28;20038;-70
2023/05/24 00:59:59;;;;;;;11.48;2.03;;;;;;;8.94;100.00;101212.41;5165787;28;20041;-70
2023/05/24 01:02:29;;;;;;;14.48;2.08;;;;;;;9.08;100.00;101215.59;5168136;28;20080;-70
2023/05/24 01:04:59;;;;;;;15.43;2.03;;;;;;;8.87;100.00;101213.38;5165984;28;20455;-70
2023/05/24 01:07:49;;;;;;;11.80;2.08;;;;;;;9.05;100.00;101207.81;5164863;28;20407;-69
2023/05/24 01:10:58;;;;;;;12.15;2.13;;;;;;;9.12;100.00;101206.84;5162447;28;20026;-70
2023/05/24 01:13:44;;;;;;;15.73;2.45;;;;;;;9.17;100.00;101208.44;5173957;28;20041;-71
2023/05/24 01:16:40;;;;;;;12.48;1.98;;;;;;;9.12;100.00;101209.44;5168472;28;20202;-70
2023/05/24 01:19:37;;;;;;;7.75;1.77;;;;;;;9.23;99.21;101202.25;5166141;28;20092;-70
2023/05/24 01:22:13;;;;;;;11.93;2.15;;;;;;;9.27;100.00;101199.56;5171789;28;20597;-70
2023/05/24 01:25:04;;;;;;;12.02;1.50;;;;;;;9.23;100.00;101202.25;5163080;28;20475;-70
2023/05/24 01:27:37;;;;;;;10.32;2.17;;;;;;;9.21;98.98;101206.63;5163509;28;20041;-70
2023/05/24 01:30:08;;;;;;;12.25;2.45;;;;;;;9.04;99.86;101195.69;5170101;28;20030;-69
2023/05/24 01:32:39;;;;;;;10.57;1.75;;;;;;;8.93;100.00;101195.03;5165669;28;20027;-70
2023/05/24 01:35:10;;;;;;;14.95;2.15;;;;;;;8.91;100.00;101196.78;5183104;28;20475;-71
2023/05/24 01:37:40;;;;;;;10.93;1.90;;;;;;;9.02;100.00;101192.25;5163886;28;20026;-70
2023/05/24 01:40:11;;;;;;;13.48;2.25;;;;;;;9.03;100.00;101193.13;5165156;28;20021;-71
2023/05/24 01:42:47;;;;;;;10.02;1.58;;;;;;;8.86;100.00;101185.59;5162856;28;20023;-70
2023/05/24 01:45:28;;;;;;;12.95;2.05;;;;;;;8.92;100.00;101193.31;5165177;28;20030;-69
2023/05/24 01:48:26;;;;;;;9.30;2.03;;;;;;;8.97;100.00;101207.13;5163920;28;20678;-71
2023/05/24 01:50:58;;;;;;;15.75;2.25;;;;;;;9.02;100.00;101191.38;5163097;28;20069;-70
2023/05/24 01:53:34;;;;;;;8.95;1.60;;;;;;;9.05;100.00;101188.72;5165740;28;20072;-71
2023/05/24 01:56:05;;;;;;;11.80;1.45;;;;;;;8.79;100.00;101186.63;5166857;28;20053;-71
2023/05/24 01:58:38;;;;;;;8.15;2.05;;;;;;;9.00;100.00;101186.22;5179881;28;20516;-70
2023/05/24 02:01:08;;;;;;;15.02;2.25;;;;;;;9.03;100.00;101183.53;5181959;28;20116;-70
2023/05/24 02:03:40;;;;;;;9.25;2.47;;;;;;;9.12;100.00;101178.16;5163731;28;20213;-70
2023/05/24 02:06:10;;;;;;;9.25;1.92;;;;;;;9.04;100.00;101174.81;5172985;28;20080;-70
2023/05/24 02:08:40;;;;;;;14.02;2.22;;;;;;;9.00;100.00;101177.50;5162965;28;20030;-70
2023/05/24 02:11:11;;;;;;;9.02;1.92;;;;;;;9.10;100.00;101174.69;5168318;28;20044;-70
2023/05/24 02:13:41;;;;;;;9.23;1.70;;;;;;;9.04;100.00;101174.81;5163897;28;20026;-71
2023/05/24 02:16:12;;;;;;;9.35;1.73;;;;;;;9.01;100.00;101166.19;5168416;28;20072;-70
2023/05/24 02:18:45;;;;;;;15.20;3.00;;;;;;;8.94;100.00;101168.09;5165405;28;20105;-71
2023/05/24 02:21:15;;;;;;;9.35;1.77;;;;;;;8.94;100.00;101172.44;5170705;28;20026;-70
2023/05/24 02:23:46;;;;;;;10.93;2.10;;;;;;;9.06;100.00;101167.00;5166285;28;20488;-70
2023/05/24 02:26:17;;;;;;;13.88;2.13;;;;;;;8.88;100.00;101162.97;5169261;28;20026;-71
2023/05/24 02:28:47;;;;;;;12.40;1.98;;;;;;;9.04;100.00;101160.94;5162930;28;20034;-70
2023/05/24 02:31:17;;;;;;;8.93;2.17;;;;;;;8.99;100.00;101161.03;5167756;28;20057;-70
2023/05/24 02:33:48;;;;;;;13.38;2.42;;;;;;;9.02;100.00;101152.28;5166702;28;20100;-69
2023/05/24 02:36:18;;;;;;;9.38;1.90;;;;;;;8.92;100.00;101161.19;5168804;28;20022;-70
2023/05/24 02:38:50;;;;;;;15.85;3.13;;;;;;;8.91;100.00;101156.84;5161776;28;20044;-70
2023/05/24 02:41:20;;;;;;;11.68;2.08;;;;;;;8.93;100.00;101152.47;5165512;28;20025;-69
2023/05/24 02:43:51;;;;;;;8.00;1.80;;;;;;;8.91;100.00;101151.66;5163048;28;20147;-70
2023/05/24 02:46:21;;;;;;;10.35;2.10;;;;;;;8.77;100.00;101146.72;5166741;28;20037;-71
2023/05/24 02:48:51;;;;;;;15.88;2.58;;;;;;;8.82;100.00;101157.03;5185896;22;20046;-73
2023/05/24 02:51:22;;;;;;;11.25;2.30;;;;;;;8.87;100.00;101157.81;5164486;28;20036;-73
2023/05/24 02:53:52;;;;;;;14.02;2.05;;;;;;;8.82;100.00;101160.50;5163991;28;20527;-74
2023/05/24 02:56:22;;;;;;;11.90;2.00;;;;;;;8.75;100.00;101160.66;5165430;28;20551;-73
2023/05/24 02:58:53;;;;;;;11.98;2.85;;;;;;;8.72;100.00;101155.50;5163261;28;20058;-73
2023/05/24 03:01:23;;;;;;;11.10;2.00;;;;;;;8.67;100.00;101154.69;5166542;28;20041;-71
2023/05/24 03:03:53;;;;;;;12.95;2.30;;;;;;;8.81;100.00;101157.91;5162697;28;20272;-72
2023/05/24 03:06:24;;;;;;;12.77;2.50;;;;;;;8.67;100.00;101157.31;5165181;28;20053;-72
2023/05/24 03:08:54;;;;;;;13.00;1.98;;;;;;;8.75;100.00;101151.06;5163498;28;20026;-72
2023/05/24 03:11:25;;;;;;;14.60;2.38;;;;;;;8.82;100.00;101157.91;5164230;28;20045;-73
2023/05/24 03:13:55;;;;;;;21.55;3.38;;;;;;;8.76;100.00;101152.78;5164070;28;20038;-73
2023/05/24 03:16:25;;;;;;;17.42;3.70;;;;;;;8.58;100.00;101160.94;5165354;28;20022;-71
2023/05/24 03:18:56;;;;;;;11.48;2.28;;;;;;;8.56;100.00;101154.91;5165099;28;20033;-73
2023/05/24 03:21:26;;;;;;;13.27;2.20;;;;;;;8.67;100.00;101163.38;5166155;28;20026;-72
2023/05/24 03:23:57;;;;;;;19.33;4.15;;;;;;;8.70;100.00;101155.50;5162020;28;20113;-72
2023/05/24 03:26:27;;;;;;;15.23;2.70;;;;;;;8.65;100.00;101154.75;5158070;28;20443;-72
2023/05/24 03:28:57;;;;;;;20.60;2.83;;;;;;;8.77;100.00;101146.72;5160404;28;20021;-72
2023/05/24 03:31:27;;;;;;;13.13;2.45;;;;;;;8.64;100.00;101142.59;5165327;28;20028;-72
2023/05/24 03:33:58;;;;;;;19.95;2.90;;;;;;;8.61;100.00;101149.63;5167808;28;20026;-72
2023/05/24 03:36:28;;;;;;;14.75;2.58;;;;;;;8.83;100.00;101148.31;5163330;28;20018;-73
2023/05/24 03:38:58;;;;;;;10.93;1.98;;;;;;;8.87;100.00;101143.00;5180938;28;20615;-73
2023/05/24 03:41:29;;;;;;;11.38;2.15;;;;;;;8.78;100.00;101145.81;5166066;28;20057;-74
2023/05/24 03:44:00;;;;;;;14.15;2.42;;;;;;;8.90;100.00;101150.78;5163618;28;20431;-71
2023/05/24 03:46:30;;;;;;;14.90;2.70;;;;;;;8.78;100.00;101151.03;5162716;28;20069;-72
2023/05/24 03:49:00;;;;;;;16.27;2.53;;;;;;;8.75;100.00;101147.63;5163943;28;20032;-73
2023/05/24 03:51:30;;;;;;;12.38;2.38;;;;;;;8.74;100.00;101153.72;5156970;28;20562;-72
2023/05/24 03:54:01;;;;;;;21.00;2.92;;;;;;;8.74;100.00;101158.94;5164802;28;20061;-73
2023/05/24 03:56:31;;;;;;;16.10;2.45;;;;;;;8.70;100.00;101158.13;5165217;28;20026;-73
2023/05/24 03:59:02;;;;;;;11.50;2.90;;;;;;;8.96;100.00;101155.00;5164693;28;20030;-72
2023/05/24 04:01:35;;;;;;;13.85;3.78;;;;;;;8.96;100.00;101152.41;5158181;28;20510;-73
2023/05/24 04:04:05;;;;;;;19.92;3.03;;;;;;;9.19;100.00;101158.88;5164312;28;20030;-73
2023/05/24 04:06:36;;;;;;;13.30;2.83;;;;;;;9.03;100.00;101162.69;5178245;28;20041;-72
2023/05/24 04:09:08;;;;;;;17.48;3.00;;;;;;;9.46;100.00;101163.53;5166048;28;20506;-72
2023/05/24 04:11:39;;;;;;;19.23;2.70;;;;;;;9.10;100.00;101166.88;5161561;28;20041;-72
2023/05/24 04:14:09;;;;;;;18.65;2.72;;;;;;;9.17;100.00;101166.72;5167241;28;20026;-74
2023/05/24 04:16:40;;;;;;;19.45;2.83;;;;;;;9.37;100.00;101171.53;5163172;28;20030;-73
2023/05/24 04:19:10;;;;;;;14.98;2.45;;;;;;;9.26;100.00;101166.53;5162441;28;20498;-73
2023/05/24 04:21:41;;;;;;;13.05;2.58;;;;;;;9.24;100.00;101163.09;5162370;28;20473;-73
2023/05/24 04:24:11;;;;;;;19.50;2.55;;;;;;;9.46;100.00;101166.13;5166604;28;20052;-73
2023/05/24 04:26:41;;;;;;;20.08;3.08;;;;;;;9.27;100.00;101175.22;5168878;28;20038;-73
2023/05/24 04:29:12;;;;;;;20.80;3.80;;;;;;;9.36;100.00;101164.59;5167548;28;20169;-73
2023/05/24 04:31:43;;;;;;;12.57;2.28;;;;;;;9.48;100.00;101164.34;5169009;28;20534;-74
2023/05/24 04:34:13;;;;;;;14.88;2.70;;;;;;;9.66;100.00;101171.75;5169391;28;20236;-73
2023/05/24 04:36:44;;;;;;;17.30;2.30;;;;;;;9.69;100.00;101171.69;5168814;28;20037;-74
2023/05/24 04:39:14;;;;;;;16.92;2.95;;;;;;;9.70;100.00;101174.28;5167836;28;20095;-73
2023/05/24 04:41:45;;;;;;;12.10;2.45;;;;;;;10.12;100.00;101175.91;5168954;28;20109;-73
2023/05/24 04:44:16;;;;;;;13.27;2.95;;;;;;;10.54;99.06;101171.38;5170391;28;20502;-74
2023/05/24 04:46:46;;;;;;;14.65;2.50;;;;;;;10.42;96.72;101176.91;5165946;28;20556;-73
2023/05/24 04:49:16;;;;;;;14.27;2.65;;;;;;;10.55;97.25;101170.47;5168596;28;20281;-73
2023/05/24 04:51:47;;;;;;;14.85;2.65;;;;;;;10.36;98.04;101179.69;5167476;28;20034;-73
2023/05/24 04:54:17;;;;;;;14.52;2.80;;;;;;;10.40;98.78;101189.16;5170037;28;20076;-73
2023/05/24 04:56:48;;;;;;;15.82;2.30;;;;;;;10.22;99.21;101185.25;5167949;28;20034;-73
2023/05/24 04:59:18;;;;;;;11.57;2.42;;;;;;;10.04;99.20;101182.22;5170308;28;20031;-73
2023/05/24 05:01:48;;;;;;;12.88;2.83;;;;;;;10.18;100.00;101182.75;5169171;28;20032;-73
2023/05/24 05:04:18;;;;;;;14.45;3.13;;;;;;;10.09;100.00;101175.13;5170277;28;20029;-74
2023/05/24 05:06:49;;;;;;;11.00;2.97;;;;;;;10.07;100.00;101176.91;5168291;28;20226;-72
2023/05/24 05:09:20;;;;;;;13.38;2.78;;;;;;;9.96;100.00;101186.75;5169586;28;20427;-73
2023/05/24 05:11:50;;;;;;;20.20;3.42;;;;;;;10.01;100.00;101175.28;5167362;28;20065;-73
2023/05/24 05:14:20;;;;;;;22.67;4.90;;;;;;;10.10;100.00;101176.84;5169331;28;20029;-73
2023/05/24 05:16:50;;;;;;;27.10;5.10;;;;;;;9.92;100.00;101183.34;5167138;28;20118;-72
2023/05/24 05:19:21;;;;;;;22.50;5.35;;;;;;;10.04;100.00;101182.22;5168813;28;20065;-73
2023/05/24 05:21:51;;;;;;;18.48;3.45;;;;;;;10.24;100.00;101182.59;5167063;28;20022;-74
2023/05/24 05:24:21;;;;;;;15.75;3.45;;;;;;;10.16;100.00;101180.16;5168894;28;20483;-73
2023/05/24 05:26:52;;;;;;;18.40;2.67;;;;;;;10.25;100.00;101186.91;5164252;28;20027;-73
2023/05/24 05:29:22;;;;;;;19.48;3.28;;;;;;;10.27;100.00;101186.00;5164346;28;20109;-74
2023/05/24 05:31:52;;;;;;;16.73;3.80;;;;;;;10.21;100.00;101186.16;5169629;28;20558;-74
2023/05/24 05:34:23;;;;;;;17.70;3.25;;;;;;;10.10;100.00;101187.28;5169742;28;20183;-73
2023/05/24 05:36:53;;;;;;;17.95;3.45;;;;;;;10.21;100.00;101188.75;5169203;28;20027;-73
2023/05/24 05:39:23;;;;;;;23.45;3.88;;;;;;;10.26;100.00;101192.13;5181860;28;20026;-73
2023/05/24 05:41:53;;;;;;;15.68;3.05;;;;;;;10.55;100.00;101186.16;5169706;28;20421;-74
2023/05/24 05:44:24;;;;;;;12.00;2.70;;;;;;;10.79;100.00;101182.88;5163514;28;20096;-73
2023/05/24 05:46:54;;;;;;;13.85;3.05;;;;;;;10.72;99.65;101189.19;5167509;28;20026;-74
2023/05/24 05:49:24;;;;;;;12.55;3.10;;;;;;;10.86;100.00;101185.28;5165656;28;20034;-73
2023/05/24 05:51:55;;;;;;;22.17;3.53;;;;;;;10.70;100.00;101183.16;5165693;28;20038;-73
2023/05/24 05:54:27;;;;;;;16.83;3.08;;;;;;;10.56;100.00;101185.25;5164213;28;20022;-72
2023/05/24 05:56:57;;;;;;;19.98;3.20;;;;;;;10.80;100.00;101190.69;5165453;28;20496;-74
2023/05/24 05:59:27;;;;;;;27.63;3.92;;;;;;;10.81;100.00;101199.38;5166759;28;20041;-73
2023/05/24 06:01:58;;;;;;;16.55;2.60;;;;;;;11.20;99.38;101197.41;5169859;28;20382;-73
2023/05/24 06:04:28;;;;;;;17.02;3.22;;;;;;;11.45;98.61;101185.34;5168116;28;20029;-75
2023/05/24 06:06:58;;;;;;;16.05;3.95;;;;;;;11.36;97.08;101193.47;5166749;28;20030;-72
2023/05/24 06:09:28;;;;;;;17.20;2.83;;;;;;;11.69;96.18;101187.28;5181261;28;20205;-72
2023/05/24 06:11:59;;;;;;;20.67;3.10;;;;;;;11.67;96.00;101194.31;5165587;28;20493;-72
2023/05/24 06:14:30;;;;;;;14.88;2.80;;;;;;;11.65;96.52;101190.84;5165757;28;20149;-73
2023/05/24 06:17:00;;;;;;;17.65;3.03;;;;;;;11.65;96.32;101200.50;5167441;28;20033;-73
2023/05/24 06:19:31;;;;;;;16.65;2.83;;;;;;;11.58;97.23;101202.44;5165568;28;20032;-71
2023/05/24 06:22:02;;;;;;;17.90;3.30;;;;;;;11.48;95.65;101193.09;5180701;28;20398;-74
2023/05/24 06:24:35;;;;;;;15.27;2.63;;;;;;;11.72;96.13;101199.38;5166769;28;20029;-73
2023/05/24 06:27:05;;;;;;;13.65;3.75;;;;;;;11.96;95.55;101191.63;5166797;28;20033;-72
2023/05/24 06:29:36;;;;;;;19.13;3.00;;;;;;;12.09;93.73;101203.47;5166174;28;20030;-72
2023/05/24 06:32:06;;;;;;;17.60;3.15;;;;;;;11.82;95.92;101204.28;5171138;28;20029;-73
2023/05/24 06:34:36;;;;;;;18.40;3.22;;;;;;;11.76;95.73;101209.72;5165034;28;20037;-75
2023/05/24 06:37:09;;;;;;;16.67;2.90;;;;;;;12.09;94.07;101213.94;5166403;28;20033;-73
2023/05/24 06:39:40;;;;;;;21.55;2.85;;;;;;;12.25;94.18;101211.66;5180115;28;20034;-73
2023/05/24 06:42:10;;;;;;;17.80;2.85;;;;;;;12.34;91.67;101220.13;5166906;28;20100;-74
2023/05/24 06:44:40;;;;;;;31.38;5.05;;;;;;;12.31;91.59;101222.81;5162427;28;20084;-73
2023/05/24 06:47:11;;;;;;;16.80;4.40;;;;;;;12.64;91.55;101221.72;5168247;28;20025;-73
2023/05/24 06:49:41;;;;;;;10.70;2.47;;;;;;;12.51;91.94;101217.81;5162555;28;20508;-73
2023/05/24 06:52:12;;;;;;;22.55;3.60;;;;;;;12.71;90.31;101217.13;5167845;28;20241;-73
2023/05/24 06:54:42;;;;;;;17.40;2.80;;;;;;;13.04;90.05;101216.84;5179642;28;20034;-72
2023/05/24 06:57:13;;;;;;;12.82;2.53;;;;;;;12.95;89.50;101225.03;5165938;28;20041;-72
2023/05/24 06:59:43;;;;;;;14.80;3.30;;;;;;;13.28;88.74;101229.09;5168085;28;20419;-73
2023/05/24 07:02:13;;;;;;;13.02;2.92;;;;;;;13.03;89.07;101228.28;5174926;28;20026;-73
2023/05/24 07:04:44;;;;;;;14.52;2.80;;;;;;;13.16;88.20;101229.53;5164068;28;20447;-73
2023/05/24 07:07:14;;;;;;;17.52;3.45;;;;;;;12.88;89.42;101234.00;5183063;28;20025;-74
2023/05/24 07:09:46;;;;;;;13.43;2.72;;;;;;;12.74;91.88;101236.25;5164197;28;20110;-74
2023/05/24 07:12:17;;;;;;;14.00;3.45;;;;;;;12.60;91.13;101233.22;5167821;28;20025;-73
2023/05/24 07:14:47;;;;;;;14.23;2.90;;;;;;;12.78;90.47;101232.59;5164970;28;20025;-73
2023/05/24 07:17:17;;;;;;;20.40;3.42;;;;;;;12.70;91.47;101245.13;5160280;28;20506;-74
2023/05/24 07:19:47;;;;;;;11.23;2.70;;;;;;;12.95;90.11;101243.41;5163991;28;20033;-72
2023/05/24 07:22:18;;;;;;;14.95;2.80;;;;;;;12.83;89.46;101232.44;5183077;28;20124;-73
2023/05/24 07:24:48;;;;;;;17.73;2.95;;;;;;;13.18;87.88;101238.19;5167375;28;20384;-72
2023/05/24 07:27:19;;;;;;;11.07;3.10;;;;;;;13.42;86.53;101243.44;5168766;28;20335;-73
2023/05/24 07:29:49;;;;;;;14.38;2.90;;;;;;;13.50;85.03;101238.75;5165153;28;20091;-72
2023/05/24 07:32:19;;;;;;;14.05;2.83;;;;;;;13.39;83.56;101238.28;5168660;28;20030;-73
2023/05/24 07:34:50;;;;;;;14.77;2.70;;;;;;;13.49;83.35;101238.81;5167436;28;20049;-74
2023/05/24 07:37:22;;;;;;;13.90;2.78;;;;;;;13.57;83.91;101242.03;5167797;28;20052;-74
2023/05/24 07:39:53;;;;;;;11.52;3.08;;;;;;;13.62;82.03;101245.34;5165032;28;20060;-73
2023/05/24 07:42:23;;;;;;;13.98;2.58;;;;;;;13.50;82.61;101244.03;5167724;28;20025;-72
2023/05/24 07:44:54;;;;;;;18.65;2.70;;;;;;;13.42;83.51;101245.22;5170823;28;20038;-73
2023/05/24 07:47:24;;;;;;;14.38;3.30;;;;;;;13.64;83.99;101239.13;5165418;28;20065;-74
2023/05/24 07:49:54;;;;;;;13.48;3.05;;;;;;;13.55;84.21;101246.50;5169269;28;20045;-74
2023/05/24 07:52:25;;;;;;;12.18;2.40;;;;;;;13.40;84.19;101245.25;5168146;28;20029;-71
2023/05/24 07:54:55;;;;;;;11.80;2.50;;;;;;;13.66;83.04;101232.03;5169708;28;20056;-73
2023/05/24 07:57:26;;;;;;;14.73;2.08;;;;;;;14.98;78.27;101232.75;5165328;28;20100;-73
2023/05/24 07:59:56;;;;;;;12.82;2.72;;;;;;;16.43;73.33;101225.13;5164936;28;20537;-74
2023/05/24 08:02:26;;;;;;;10.07;2.20;;;;;;;17.34;71.30;101219.53;5169414;28;20026;-75
2023/05/24 08:04:57;;;;;;;9.73;2.30;;;;;;;19.08;64.49;101213.00;5165739;28;20144;-74
2023/05/24 08:07:27;;;;;;;9.13;2.25;;;;;;;18.70;65.84;101222.34;5163045;28;20037;-73
2023/05/24 08:09:57;;;;;;;11.23;2.30;;;;;;;17.99;65.76;101224.75;5167927;28;20061;-73
2023/05/24 08:12:29;;;;;;;11.52;2.22;;;;;;;18.82;64.85;101214.56;5166245;28;20033;-75
2023/05/24 08:14:59;;;;;;;12.02;2.30;;;;;;;18.38;65.57;101219.88;5166497;28;20041;-74
2023/05/24 08:17:30;;;;;;;8.80;2.10;;;;;;;17.71;66.78;101230.69;5165809;28;20030;-73
2023/05/24 08:20:04;;;;;;;9.38;2.00;;;;;;;16.63;68.76;101238.19;5164564;28;20038;-72
2023/05/24 08:22:36;;;;;;;10.90;2.00;;;;;;;16.49;70.34;101235.38;5161731;28;20034;-74
2023/05/24 08:25:06;;;;;;;7.78;1.63;;;;;;;16.57;71.69;101238.47;5169455;28;20033;-74
2023/05/24 08:27:37;;;;;;;8.55;1.90;;;;;;;16.20;71.04;101230.59;5164422;28;20030;-74
2023/05/24 08:30:08;;;;;;;8.40;2.05;;;;;;;15.88;73.47;101239.19;5168630;28;20034;-74
2023/05/24 08:32:38;;;;;;;6.18;1.45;;;;;;;15.44;74.04;101237.75;5164701;28;20040;-74
2023/05/24 08:35:08;;;;;;;7.63;1.60;;;;;;;15.97;73.54;101230.84;5164086;28;20026;-74
2023/05/24 08:37:39;;;;;;;5.93;1.73;;;;;;;15.95;73.52;101235.34;5161154;28;20488;-73
2023/05/24 08:40:09;;;;;;;10.73;2.00;;;;;;;15.76;73.68;101231.00;5168493;28;20084;-74
2023/05/24 08:42:40;;;;;;;7.32;1.73;;;;;;;15.39;74.38;101236.22;5166003;28;20034;-73
2023/05/24 08:45:12;;;;;;;15.15;2.25;;;;;;;15.21;75.36;101229.94;5161214;28;20027;-73
2023/05/24 08:47:42;;;;;;;13.77;1.98;;;;;;;15.11;77.15;101236.56;5155440;28;20030;-72
2023/05/24 08:50:12;;;;;;;10.07;2.03;;;;;;;14.66;78.38;101239.44;5186464;23;20033;-71
2023/05/24 08:52:44;;;;;;;10.15;1.95;;;;;;;14.24;81.40;101251.69;5161032;28;20451;-71
2023/05/24 08:55:15;;;;;;;9.95;2.40;;;;;;;14.42;80.79;101249.19;5164060;28;20037;-72
2023/05/24 08:57:46;;;;;;;11.75;2.28;;;;;;;14.46;79.96;101250.75;5159902;28;20282;-72
2023/05/24 09:00:18;;;;;;;12.32;2.58;;;;;;;14.45;80.05;101256.94;5164366;28;20107;-72
2023/05/24 09:02:48;;;;;;;9.02;1.92;;;;;;;14.62;79.33;101259.72;5161011;28;20050;-72
2023/05/24 09:05:20;;;;;;;11.70;2.25;;;;;;;14.64;79.40;101270.22;5161393;28;20034;-72
2023/05/24 09:07:51;;;;;;;11.35;2.00;;;;;;;14.55;79.95;101267.94;5160282;28;20403;-72
2023/05/24 09:10:22;;;;;;;16.30;2.33;;;;;;;14.37;80.01;101276.56;5163791;28;20044;-72
2023/05/24 09:12:57;;;;;;;11.43;1.83;;;;;;;14.26;79.77;101274.38;5165160;28;20118;-72
2023/05/24 09:15:28;;;;;;;11.85;2.47;;;;;;;14.17;80.42;101277.38;5165031;28;20116;-72
2023/05/24 09:17:58;;;;;;;11.43;2.10;;;;;;;14.30;80.66;101283.88;5164294;28;20026;-71
2023/05/24 09:20:29;;;;;;;7.15;2.42;;;;;;;14.31;80.62;101275.06;5165577;28;20026;-71
2023/05/24 09:23:02;;;;;;;9.70;1.98;;;;;;;14.32;80.28;101283.78;5165492;28;20113;-73
2023/05/24 09:25:33;;;;;;;9.25;1.90;;;;;;;14.51;79.65;101272.50;5166254;28;20042;-71
2023/05/24 09:28:09;;;;;;;11.65;2.13;;;;;;;14.47;77.78;101275.31;5165637;28;20033;-72
2023/05/24 09:30:42;;;;;;;6.15;1.90;;;;;;;14.51;78.69;101267.22;5168466;28;20037;-70
2023/05/24 09:33:12;;;;;;;11.38;2.17;;;;;;;14.38;80.31;101281.78;5168511;28;20022;-72
2023/05/24 09:35:43;;;;;;;9.77;2.03;;;;;;;14.41;80.88;101275.56;5167319;28;20488;-71
2023/05/24 09:38:17;;;;;;;6.22;1.70;;;;;;;14.53;80.00;101264.53;5165292;28;20033;-72
2023/05/24 09:40:57;;;;;;;7.07;2.20;;;;;;;14.40;79.13;101273.84;5155324;28;20042;-70
2023/05/24 09:43:30;;;;;;;5.85;1.70;;;;;;;14.15;80.63;101278.31;5166953;28;20080;-72
2023/05/24 09:46:02;;;;;;;8.10;1.85;;;;;;;14.02;82.82;101285.81;5161922;28;20034;-71
2023/05/24 09:48:32;;;;;;;11.65;2.20;;;;;;;13.75;84.35;101293.88;5164592;28;20447;-70
2023/05/24 09:51:06;;;;;;;13.65;2.85;;;;;;;13.50;86.00;101287.78;5164484;28;20034;-70
2023/05/24 09:53:36;;;;;;;12.45;2.55;;;;;;;13.41;88.01;101280.25;5165195;28;20292;-71
2023/05/24 09:56:09;;;;;;;12.23;2.08;;;;;;;13.35;87.71;101288.34;5169340;28;20034;-72
2023/05/24 09:58:41;;;;;;;14.60;1.95;;;;;;;13.30;88.95;101290.28;5166060;28;20026;-71
2023/05/24 10:01:13;;;;;;;10.60;1.70;;;;;;;13.31;89.33;101292.88;5164219;28;20042;-72
2023/05/24 10:03:53;;;;;;;7.22;1.92;;;;;;;13.37;89.72;101291.78;5155743;28;20027;-72
2023/05/24 10:06:24;;;;;;;11.45;1.75;;;;;;;13.28;89.69;101292.97;5158311;28;20026;-71
2023/05/24 10:08:55;;;;;;;7.53;1.88;;;;;;;13.35;88.78;101285.72;5163393;28;20045;-71
2023/05/24 10:11:26;;;;;;;9.55;1.75;;;;;;;13.21;88.67;101290.63;5164354;28;20378;-71
2023/05/24 10:13:57;;;;;;;5.43;1.38;;;;;;;13.44;90.36;101288.03;5165461;28;20034;-70
2023/05/24 10:16:28;;;;;;;7.32;1.80;;;;;;;13.28;89.88;101294.72;5164462;28;20040;-72
2023/05/24 10:18:58;;;;;;;8.02;1.60;;;;;;;13.74;89.14;101281.66;5164934;28;20464;-70
2023/05/24 10:21:31;;;;;;;7.47;1.67;;;;;;;13.91;88.15;101287.16;5166129;28;20121;-72
2023/05/24 10:24:03;;;;;;;6.57;1.77;;;;;;;14.17;88.52;101289.66;5165737;28;20532;-70
2023/05/24 10:26:37;;;;;;;6.80;1.80;;;;;;;14.33;87.39;101290.78;5165814;28;20516;-72
2023/05/24 10:29:14;;;;;;;6.53;1.50;;;;;;;14.76;87.60;101283.72;5165080;28;20033;-70
2023/05/24 10:31:45;;;;;;;7.32;1.50;;;;;;;15.45;83.31;101286.00;5166034;28;20069;-72
2023/05/24 10:34:16;;;;;;;10.35;1.90;;;;;;;16.02;82.50;101278.13;5168143;28;20473;-72
2023/05/24 10:36:47;;;;;;;11.43;2.33;;;;;;;16.37;80.22;101286.09;5165734;28;20028;-70
2023/05/24 10:39:21;;;;;;;9.40;1.80;;;;;;;16.87;79.88;101276.56;5167091;28;20124;-71
2023/05/24 10:41:55;;;;;;;9.20;1.95;;;;;;;16.50;78.79;101283.72;5165592;28;20290;-71
2023/05/24 10:44:28;;;;;;;7.57;1.67;;;;;;;16.14;78.56;101283.66;5166424;28;20026;-72
2023/05/24 10:47:12;;;;;;;7.57;1.70;;;;;;;15.97;77.71;101286.22;5166283;28;20038;-71
2023/05/24 10:49:51;;;;;;;7.78;1.63;;;;;;;16.11;78.67;101281.19;5161322;28;20040;-72
2023/05/24 10:52:33;;;;;;;6.10;1.75;;;;;;;16.14;78.59;101288.06;5164261;28;20362;-72
2023/05/24 10:55:07;;;;;;;6.95;1.65;;;;;;;15.70;78.50;101298.03;5157645;28;20034;-71
2023/05/24 10:57:38;;;;;;;7.57;2.13;;;;;;;15.37;79.65;101303.94;5165052;28;20034;-71
2023/05/24 11:00:24;;;;;;;6.25;1.45;;;;;;;15.03;80.14;101304.47;5162947;28;20036;-70
2023/05/24 11:03:09;;;;;;;11.47;2.00;;;;;;;14.43;82.60;101310.53;5160378;28;20128;-72
2023/05/24 11:05:47;;;;;;;12.13;2.25;;;;;;;14.37;85.14;101305.50;5161311;28;20711;-71
2023/05/24 11:08:34;;;;;;;6.72;2.38;;;;;;;14.59;86.27;101301.13;5158418;28;20037;-72
2023/05/24 11:11:08;;;;;;;8.65;2.03;;;;;;;14.62;84.19;101312.34;5163367;28;20048;-72
2023/05/24 11:13:39;;;;;;;6.25;1.90;;;;;;;14.83;84.69;101300.97;5165686;28;20357;-72
2023/05/24 11:16:35;;;;;;;9.43;1.85;;;;;;;14.74;85.03;101300.50;5157467;28;20038;-71
2023/05/24 11:19:16;;;;;;;7.22;1.90;;;;;;;15.28;82.98;101307.78;5161210;28;20484;-72
2023/05/24 11:21:48;;;;;;;6.00;1.88;;;;;;;15.06;81.77;101304.38;5162938;28;20034;-72
2023/05/24 11:24:20;;;;;;;10.00;2.05;;;;;;;14.90;81.96;101302.44;5162828;28;20026;-71
2023/05/24 11:26:53;;;;;;;7.32;1.90;;;;;;;15.21;83.45;101300.22;5160325;28;20038;-71
2023/05/24 11:29:23;;;;;;;4.97;1.70;;;;;;;15.38;82.04;101306.50;5154818;28;20558;-72
2023/05/24 11:31:56;;;;;;;6.45;1.70;;;;;;;15.28;81.27;101305.16;5164764;28;20037;-72
2023/05/24 11:34:27;;;;;;;7.40;2.13;;;;;;;15.51;81.88;101305.03;5164241;28;20018;-72
2023/05/24 11:36:59;;;;;;;6.45;2.53;;;;;;;15.73;81.31;101304.94;5164195;28;20034;-73
2023/05/24 11:39:34;;;;;;;8.48;2.60;;;;;;;15.72;80.80;101295.31;5161139;28;20061;-72
2023/05/24 11:42:06;;;;;;;8.00;2.28;;;;;;;15.85;80.89;101302.59;5164340;28;20504;-72